createdAt,value
2023-02-09T00:00:02.198Z,-2.5
2023-02-09T00:00:59.973Z,-2.5
2023-02-09T00:02:00.707Z,-2.5
2023-02-09T00:03:00.228Z,-2.4
2023-02-09T00:03:59.908Z,-2.3
2023-02-09T00:05:00.384Z,-2.4
2023-02-09T00:06:00.006Z,-2.2
2023-02-09T00:07:00.874Z,-2.2
2023-02-09T00:08:00.218Z,-2.2
2023-02-09T00:08:59.910Z,-2.2
2023-02-09T00:10:00.425Z,-2.2
2023-02-09T00:11:00.023Z,-2.2
2023-02-09T00:12:00.609Z,-2
2023-02-09T00:13:00.205Z,-2
2023-02-09T00:13:59.788Z,-1.9
2023-02-09T00:15:00.395Z,-1.9
2023-02-09T00:16:00.095Z,-1.8
2023-02-09T00:17:00.644Z,-1.8
2023-02-09T00:18:00.265Z,-1.8
2023-02-09T00:18:59.820Z,-1.9
2023-02-09T00:20:00.408Z,-1.8
2023-02-09T00:21:00.000Z,-1.8
2023-02-09T00:22:00.616Z,-1.8
2023-02-09T00:23:00.211Z,-1.8
2023-02-09T00:23:59.801Z,-1.8
2023-02-09T00:25:00.372Z,-1.8
2023-02-09T00:25:59.959Z,-1.9
2023-02-09T00:27:00.595Z,-2
2023-02-09T00:28:00.242Z,-2
2023-02-09T00:28:59.797Z,-1.9
2023-02-09T00:30:00.368Z,-1.9
2023-02-09T00:30:59.982Z,-1.9
2023-02-09T00:32:00.569Z,-1.9
2023-02-09T00:33:00.193Z,-1.8
2023-02-09T00:33:59.808Z,-1.8
2023-02-09T00:35:00.365Z,-1.8
2023-02-09T00:35:59.957Z,-1.7
2023-02-09T00:37:00.564Z,-1.7
2023-02-09T00:38:00.164Z,-1.8
2023-02-09T00:38:59.766Z,-1.8
2023-02-09T00:40:00.324Z,-1.7
2023-02-09T00:40:59.916Z,-1.8
2023-02-09T00:42:00.524Z,-2
2023-02-09T00:43:00.123Z,-2
2023-02-09T00:44:00.703Z,-2.1
2023-02-09T00:45:00.294Z,-2
2023-02-09T00:45:59.941Z,-2
2023-02-09T00:47:00.473Z,-1.9
2023-02-09T00:48:00.098Z,-1.9
2023-02-09T00:49:00.654Z,-1.8
2023-02-09T00:50:00.290Z,-1.8
2023-02-09T00:50:59.891Z,-1.7
2023-02-09T00:52:00.464Z,-1.7
2023-02-09T00:53:00.055Z,-1.8
2023-02-09T00:54:00.640Z,-1.8
2023-02-09T00:55:00.249Z,-1.8
2023-02-09T00:55:59.829Z,-1.7
2023-02-09T00:57:00.389Z,-1.7
2023-02-09T00:58:00.022Z,-1.7
2023-02-09T00:59:00.565Z,-1.8
2023-02-09T01:00:00.194Z,-1.8
2023-02-09T01:00:59.752Z,-1.6
2023-02-09T01:02:00.318Z,-1.4
2023-02-09T01:02:59.926Z,-1.3
2023-02-09T01:04:00.538Z,-1.1
2023-02-09T01:05:00.228Z,-1.1
2023-02-09T01:05:59.765Z,-1.1
2023-02-09T01:07:00.340Z,-1
2023-02-09T01:07:59.968Z,-1
2023-02-09T01:09:00.565Z,-1
2023-02-09T01:10:00.152Z,-0.9
2023-02-09T01:10:59.739Z,-0.9
2023-02-09T01:12:00.329Z,-0.9
2023-02-09T01:12:59.963Z,-0.8
2023-02-09T01:14:00.536Z,-0.7
2023-02-09T01:15:00.176Z,-0.7
2023-02-09T01:15:59.759Z,-0.7
2023-02-09T01:17:00.464Z,-0.7
2023-02-09T01:17:59.995Z,-0.8
2023-02-09T01:19:00.596Z,-0.8
2023-02-09T01:20:00.305Z,-0.7
2023-02-09T01:20:59.768Z,-0.7
2023-02-09T01:22:00.397Z,-0.8
2023-02-09T01:22:59.983Z,-0.7
2023-02-09T01:24:00.579Z,-0.7
2023-02-09T01:25:00.194Z,-0.7
2023-02-09T01:25:59.749Z,-0.7
2023-02-09T01:27:00.335Z,-0.7
2023-02-09T01:27:59.963Z,-0.6
2023-02-09T01:29:00.537Z,-0.6
2023-02-09T01:30:00.157Z,-0.6
2023-02-09T01:31:00.776Z,-0.6
2023-02-09T01:32:00.576Z,-0.6
2023-02-09T01:32:59.944Z,-0.5
2023-02-09T01:34:00.523Z,-0.6
2023-02-09T01:35:00.147Z,-0.5
2023-02-09T01:36:00.704Z,-0.6
2023-02-09T01:37:00.310Z,-0.7
2023-02-09T01:37:59.930Z,-0.6
2023-02-09T01:39:00.503Z,-0.6
2023-02-09T01:40:00.106Z,-0.7
2023-02-09T01:41:00.714Z,-0.7
2023-02-09T01:42:00.324Z,-0.7
2023-02-09T01:42:59.913Z,-0.7
2023-02-09T01:44:00.528Z,-0.7
2023-02-09T01:45:00.162Z,-0.7
2023-02-09T01:46:00.781Z,-0.7
2023-02-09T01:47:00.411Z,-0.6
2023-02-09T01:47:59.972Z,-0.7
2023-02-09T01:49:00.514Z,-0.6
2023-02-09T01:50:00.147Z,-0.7
2023-02-09T01:51:00.694Z,-0.7
2023-02-09T01:52:00.325Z,-0.7
2023-02-09T01:52:59.918Z,-0.7
2023-02-09T01:54:00.527Z,-0.7
2023-02-09T01:55:00.127Z,-0.7
2023-02-09T01:56:00.690Z,-0.7
2023-02-09T01:57:00.298Z,-0.7
2023-02-09T01:57:59.886Z,-0.8
2023-02-09T01:59:00.495Z,-0.8
2023-02-09T02:00:00.148Z,-0.8
2023-02-09T02:01:00.858Z,-0.9
2023-02-09T02:02:00.510Z,-0.9
2023-02-09T02:02:59.932Z,-0.8
2023-02-09T02:04:00.537Z,-0.8
2023-02-09T02:05:00.129Z,-0.7
2023-02-09T02:06:00.715Z,-0.8
2023-02-09T02:07:00.316Z,-0.9
2023-02-09T02:07:59.908Z,-0.9
2023-02-09T02:09:00.512Z,-0.9
2023-02-09T02:10:00.180Z,-0.9
2023-02-09T02:11:00.708Z,-0.9
2023-02-09T02:12:00.298Z,-0.9
2023-02-09T02:12:59.896Z,-0.8
2023-02-09T02:14:00.479Z,-0.8
2023-02-09T02:15:00.131Z,-0.8
2023-02-09T02:16:00.878Z,-0.9
2023-02-09T02:17:00.489Z,-0.8
2023-02-09T02:17:59.924Z,-0.9
2023-02-09T02:19:00.529Z,-0.8
2023-02-09T02:20:00.161Z,-0.9
2023-02-09T02:21:00.690Z,-0.9
2023-02-09T02:22:00.280Z,-0.9
2023-02-09T02:22:59.868Z,-0.8
2023-02-09T02:24:00.484Z,-0.8
2023-02-09T02:25:00.102Z,-0.9
2023-02-09T02:26:00.670Z,-0.8
2023-02-09T02:27:00.267Z,-0.7
2023-02-09T02:27:59.867Z,-0.7
2023-02-09T02:29:00.463Z,-0.7
2023-02-09T02:30:00.056Z,-0.8
2023-02-09T02:31:00.765Z,-0.8
2023-02-09T02:32:00.281Z,-0.8
2023-02-09T02:32:59.885Z,-0.8
2023-02-09T02:34:00.478Z,-0.9
2023-02-09T02:35:00.089Z,-0.8
2023-02-09T02:36:00.650Z,-0.9
2023-02-09T02:37:00.244Z,-0.9
2023-02-09T02:37:59.839Z,-0.9
2023-02-09T02:39:00.454Z,-0.9
2023-02-09T02:40:00.073Z,-0.8
2023-02-09T02:41:00.651Z,-0.8
2023-02-09T02:42:00.269Z,-0.7
2023-02-09T02:42:59.829Z,-0.7
2023-02-09T02:44:00.417Z,-0.8
2023-02-09T02:45:00.009Z,-0.8
2023-02-09T02:46:00.741Z,-0.8
2023-02-09T02:47:00.258Z,-0.8
2023-02-09T02:47:59.840Z,-0.8
2023-02-09T02:49:00.438Z,-0.8
2023-02-09T02:50:00.036Z,-0.8
2023-02-09T02:51:00.741Z,-0.9
2023-02-09T02:52:00.251Z,-0.9
2023-02-09T02:52:59.838Z,-1
2023-02-09T02:54:00.428Z,-0.9
2023-02-09T02:55:00.025Z,-0.9
2023-02-09T02:56:00.622Z,-0.8
2023-02-09T02:57:00.208Z,-0.8
2023-02-09T02:57:59.843Z,-0.8
2023-02-09T02:59:00.371Z,-0.8
2023-02-09T02:59:59.968Z,-0.8
2023-02-09T03:01:00.563Z,-0.8
2023-02-09T03:02:00.153Z,-0.8
2023-02-09T03:02:59.762Z,-0.9
2023-02-09T03:04:00.327Z,-0.9
2023-02-09T03:04:59.948Z,-0.9
2023-02-09T03:06:00.506Z,-0.9
2023-02-09T03:07:00.117Z,-0.9
2023-02-09T03:08:00.668Z,-0.9
2023-02-09T03:09:00.259Z,-0.9
2023-02-09T03:10:01.500Z,-0.9
2023-02-09T03:11:00.446Z,-0.9
2023-02-09T03:12:00.314Z,-0.9
2023-02-09T03:13:00.614Z,-0.9
2023-02-09T03:14:00.230Z,-0.9
2023-02-09T03:14:59.777Z,-0.9
2023-02-09T03:16:00.395Z,-1
2023-02-09T03:17:00.047Z,-1
2023-02-09T03:18:00.603Z,-1
2023-02-09T03:19:00.199Z,-1
2023-02-09T03:19:59.775Z,-1
2023-02-09T03:21:00.356Z,-0.9
2023-02-09T03:21:59.966Z,-0.9
2023-02-09T03:23:00.531Z,-0.9
2023-02-09T03:24:00.136Z,-1
2023-02-09T03:24:59.717Z,-0.9
2023-02-09T03:26:00.300Z,-0.9
2023-02-09T03:26:59.920Z,-0.8
2023-02-09T03:28:00.678Z,-0.8
2023-02-09T03:29:00.167Z,-0.7
2023-02-09T03:29:59.759Z,-0.8
2023-02-09T03:31:00.428Z,-0.8
2023-02-09T03:32:00.022Z,-0.7
2023-02-09T03:33:00.552Z,-0.7
2023-02-09T03:34:00.158Z,-0.7
2023-02-09T03:34:59.722Z,-0.7
2023-02-09T03:36:00.299Z,-0.7
2023-02-09T03:36:59.886Z,-0.7
2023-02-09T03:38:00.471Z,-0.7
2023-02-09T03:39:00.110Z,-0.7
2023-02-09T03:40:00.634Z,-0.7
2023-02-09T03:41:00.228Z,-0.8
2023-02-09T03:41:59.831Z,-0.7
2023-02-09T03:43:00.393Z,-0.8
2023-02-09T03:43:59.996Z,-0.8
2023-02-09T03:45:00.554Z,-0.7
2023-02-09T03:46:00.168Z,-0.7
2023-02-09T03:46:59.715Z,-0.6
2023-02-09T03:48:00.321Z,-0.5
2023-02-09T03:48:59.916Z,-0.6
2023-02-09T03:50:00.507Z,-0.6
2023-02-09T03:51:00.095Z,-0.7
2023-02-09T03:52:00.755Z,-0.7
2023-02-09T03:53:00.381Z,-0.7
2023-02-09T03:53:59.932Z,-0.6
2023-02-09T03:55:00.492Z,-0.7
2023-02-09T03:56:00.118Z,-0.6
2023-02-09T03:57:00.693Z,-0.7
2023-02-09T03:58:00.279Z,-0.7
2023-02-09T03:58:59.914Z,-0.7
2023-02-09T04:00:00.504Z,-0.7
2023-02-09T04:01:00.153Z,-0.6
2023-02-09T04:02:00.721Z,-0.7
2023-02-09T04:03:00.307Z,-0.7
2023-02-09T04:03:59.913Z,-0.7
2023-02-09T04:05:00.486Z,-0.6
2023-02-09T04:06:00.136Z,-0.6
2023-02-09T04:06:59.717Z,-0.6
2023-02-09T04:08:00.305Z,-0.7
2023-02-09T04:08:59.916Z,-0.6
2023-02-09T04:10:00.471Z,-0.7
2023-02-09T04:11:00.129Z,-0.7
2023-02-09T04:12:00.631Z,-0.7
2023-02-09T04:13:00.216Z,-0.7
2023-02-09T04:13:59.826Z,-0.7
2023-02-09T04:15:00.377Z,-0.7
2023-02-09T04:16:00.005Z,-0.7
2023-02-09T04:17:00.547Z,-0.7
2023-02-09T04:18:00.160Z,-0.7
2023-02-09T04:18:59.726Z,-0.7
2023-02-09T04:20:00.287Z,-0.7
2023-02-09T04:20:59.872Z,-0.7
2023-02-09T04:22:00.446Z,-0.8
2023-02-09T04:23:00.039Z,-0.7
2023-02-09T04:24:00.645Z,-0.7
2023-02-09T04:25:00.234Z,-0.7
2023-02-09T04:25:59.810Z,-0.7
2023-02-09T04:27:00.382Z,-0.7
2023-02-09T04:27:59.995Z,-0.8
2023-02-09T04:29:00.586Z,-0.7
2023-02-09T04:30:00.206Z,-0.7
2023-02-09T04:30:59.780Z,-0.8
2023-02-09T04:32:00.438Z,-0.7
2023-02-09T04:32:59.999Z,-0.8
2023-02-09T04:34:00.616Z,-0.7
2023-02-09T04:35:00.211Z,-0.7
2023-02-09T04:35:59.787Z,-0.8
2023-02-09T04:37:00.359Z,-0.7
2023-02-09T04:37:59.950Z,-0.7
2023-02-09T04:39:00.559Z,-0.8
2023-02-09T04:40:00.168Z,-0.8
2023-02-09T04:40:59.733Z,-0.8
2023-02-09T04:42:00.306Z,-0.8
2023-02-09T04:42:59.899Z,-0.9
2023-02-09T04:44:00.482Z,-0.9
2023-02-09T04:45:00.114Z,-0.9
2023-02-09T04:46:00.794Z,-0.9
2023-02-09T04:47:00.449Z,-0.9
2023-02-09T04:47:59.906Z,-1
2023-02-09T04:49:00.484Z,-1
2023-02-09T04:50:00.111Z,-1
2023-02-09T04:51:00.657Z,-1
2023-02-09T04:52:00.247Z,-1.1
2023-02-09T04:52:59.838Z,-1.1
2023-02-09T04:54:00.430Z,-1.1
2023-02-09T04:55:00.016Z,-1.1
2023-02-09T04:56:00.591Z,-1.1
2023-02-09T04:57:00.190Z,-1.1
2023-02-09T04:57:59.758Z,-1.2
2023-02-09T04:59:00.365Z,-1.2
2023-02-09T04:59:59.953Z,-1.2
2023-02-09T05:01:00.584Z,-1.1
2023-02-09T05:02:00.176Z,-1.1
2023-02-09T05:02:59.752Z,-1.2
2023-02-09T05:04:00.357Z,-1.1
2023-02-09T05:04:59.945Z,-1.2
2023-02-09T05:06:00.548Z,-1.2
2023-02-09T05:07:00.152Z,-1.1
2023-02-09T05:08:00.710Z,-1.2
2023-02-09T05:09:00.301Z,-1.2
2023-02-09T05:09:59.907Z,-1.3
2023-02-09T05:11:00.509Z,-1.3
2023-02-09T05:12:00.162Z,-1.3
2023-02-09T05:13:00.698Z,-1.3
2023-02-09T05:14:00.303Z,-1.3
2023-02-09T05:14:59.915Z,-1.3
2023-02-09T05:16:00.486Z,-1.3
2023-02-09T05:17:00.176Z,-1.3
2023-02-09T05:18:00.660Z,-1.3
2023-02-09T05:19:00.276Z,-1.3
2023-02-09T05:19:59.869Z,-1.3
2023-02-09T05:21:00.440Z,-1.2
2023-02-09T05:22:00.119Z,-1.3
2023-02-09T05:23:00.606Z,-1.3
2023-02-09T05:24:00.226Z,-1.3
2023-02-09T05:24:59.812Z,-1.4
2023-02-09T05:26:00.377Z,-1.4
2023-02-09T05:26:59.971Z,-1.4
2023-02-09T05:28:00.621Z,-1.5
2023-02-09T05:29:00.196Z,-1.5
2023-02-09T05:29:59.807Z,-1.4
2023-02-09T05:31:00.428Z,-1.4
2023-02-09T05:32:00.100Z,-1.3
2023-02-09T05:33:00.605Z,-1.2
2023-02-09T05:34:00.193Z,-1.2
2023-02-09T05:34:59.801Z,-1.2
2023-02-09T05:36:00.395Z,-1.3
2023-02-09T05:36:59.989Z,-1.4
2023-02-09T05:38:00.591Z,-1.5
2023-02-09T05:39:00.179Z,-1.5
2023-02-09T05:39:59.764Z,-1.5
2023-02-09T05:41:00.374Z,-1.5
2023-02-09T05:41:59.971Z,-1.4
2023-02-09T05:43:00.543Z,-1.4
2023-02-09T05:44:00.156Z,-1.5
2023-02-09T05:44:59.720Z,-1.5
2023-02-09T05:46:00.358Z,-1.5
2023-02-09T05:46:59.954Z,-1.5
2023-02-09T05:48:00.535Z,-1.5
2023-02-09T05:49:00.157Z,-1.5
2023-02-09T05:49:59.706Z,-1.5
2023-02-09T05:51:00.286Z,-1.5
2023-02-09T05:51:59.897Z,-1.5
2023-02-09T05:53:00.475Z,-1.5
2023-02-09T05:54:00.121Z,-1.6
2023-02-09T05:55:00.648Z,-1.5
2023-02-09T05:56:00.286Z,-1.5
2023-02-09T05:56:59.898Z,-1.5
2023-02-09T05:58:00.490Z,-1.5
2023-02-09T05:59:00.108Z,-1.5
2023-02-09T06:00:00.661Z,-1.6
2023-02-09T06:01:00.261Z,-1.5
2023-02-09T06:01:59.916Z,-1.5
2023-02-09T06:03:00.435Z,-1.6
2023-02-09T06:04:00.078Z,-1.5
2023-02-09T06:05:00.612Z,-1.5
2023-02-09T06:06:00.208Z,-1.5
2023-02-09T06:06:59.780Z,-1.5
2023-02-09T06:08:00.350Z,-1.5
2023-02-09T06:08:59.962Z,-1.4
2023-02-09T06:10:00.547Z,-1.4
2023-02-09T06:11:00.152Z,-1.5
2023-02-09T06:11:59.784Z,-1.5
2023-02-09T06:13:00.318Z,-1.5
2023-02-09T06:13:59.937Z,-1.5
2023-02-09T06:15:00.515Z,-1.5
2023-02-09T06:16:00.268Z,-1.5
2023-02-09T06:17:00.677Z,-1.5
2023-02-09T06:18:00.276Z,-1.5
2023-02-09T06:18:59.890Z,-1.5
2023-02-09T06:20:00.446Z,-1.5
2023-02-09T06:21:00.051Z,-1.5
2023-02-09T06:22:00.617Z,-1.5
2023-02-09T06:23:00.233Z,-1.5
2023-02-09T06:23:59.824Z,-1.6
2023-02-09T06:25:00.391Z,-1.5
2023-02-09T06:26:00.007Z,-1.5
2023-02-09T06:27:00.574Z,-1.5
2023-02-09T06:28:00.259Z,-1.5
2023-02-09T06:28:59.772Z,-1.5
2023-02-09T06:30:00.325Z,-1.4
2023-02-09T06:30:59.986Z,-1.5
2023-02-09T06:32:00.630Z,-1.5
2023-02-09T06:33:00.136Z,-1.4
2023-02-09T06:33:59.736Z,-1.4
2023-02-09T06:35:00.305Z,-1.3
2023-02-09T06:35:59.892Z,-1.4
2023-02-09T06:37:00.485Z,-1.3
2023-02-09T06:38:00.127Z,-1.4
2023-02-09T06:39:00.659Z,-1.4
2023-02-09T06:40:00.272Z,-1.3
2023-02-09T06:40:59.864Z,-1.4
2023-02-09T06:42:00.465Z,-1.4
2023-02-09T06:43:00.061Z,-1.4
2023-02-09T06:44:00.656Z,-1.4
2023-02-09T06:45:00.565Z,-1.5
2023-02-09T06:45:59.931Z,-1.5
2023-02-09T06:47:00.477Z,-1.4
2023-02-09T06:48:00.100Z,-1.4
2023-02-09T06:49:00.659Z,-1.4
2023-02-09T06:50:00.340Z,-1.5
2023-02-09T06:50:59.906Z,-1.4
2023-02-09T06:52:00.489Z,-1.5
2023-02-09T06:53:00.143Z,-1.4
2023-02-09T06:53:59.726Z,-1.4
2023-02-09T06:55:00.319Z,-1.3
2023-02-09T06:55:59.932Z,-1.3
2023-02-09T06:57:00.504Z,-1.2
2023-02-09T06:58:00.153Z,-1.3
2023-02-09T06:59:00.694Z,-1.3
2023-02-09T07:00:00.289Z,-1.4
2023-02-09T07:00:59.902Z,-1.4
2023-02-09T07:02:00.552Z,-1.4
2023-02-09T07:03:00.198Z,-1.4
2023-02-09T07:04:00.692Z,-1.3
2023-02-09T07:05:00.279Z,-1.3
2023-02-09T07:05:59.914Z,-1.3
2023-02-09T07:07:00.462Z,-1.3
2023-02-09T07:08:00.051Z,-1.3
2023-02-09T07:09:00.629Z,-1.3
2023-02-09T07:10:00.214Z,-1.3
2023-02-09T07:10:59.831Z,-1.3
2023-02-09T07:12:00.390Z,-1.2
2023-02-09T07:13:00.064Z,-1.2
2023-02-09T07:14:00.595Z,-1.2
2023-02-09T07:15:00.195Z,-1.2
2023-02-09T07:15:59.824Z,-1.2
2023-02-09T07:17:00.374Z,-1.2
2023-02-09T07:17:59.986Z,-1.2
2023-02-09T07:19:00.583Z,-1.2
2023-02-09T07:20:00.172Z,-1.1
2023-02-09T07:20:59.756Z,-1.2
2023-02-09T07:22:00.350Z,-1.1
2023-02-09T07:22:59.957Z,-1.1
2023-02-09T07:24:00.519Z,-1.1
2023-02-09T07:25:00.112Z,-1
2023-02-09T07:26:00.680Z,-0.9
2023-02-09T07:27:00.302Z,-1
2023-02-09T07:27:59.950Z,-0.9
2023-02-09T07:29:00.499Z,-0.8
2023-02-09T07:30:01.131Z,-0.8
2023-02-09T07:31:00.047Z,-0.8
2023-02-09T07:32:00.406Z,-0.8
2023-02-09T07:32:59.942Z,-0.8
2023-02-09T07:34:00.490Z,-0.8
2023-02-09T07:35:00.128Z,-0.8
2023-02-09T07:36:00.676Z,-0.8
2023-02-09T07:37:00.510Z,-0.7
2023-02-09T07:37:59.939Z,-0.7
2023-02-09T07:39:00.500Z,-0.7
2023-02-09T07:40:00.112Z,-0.7
2023-02-09T07:41:00.687Z,-0.6
2023-02-09T07:42:00.277Z,-0.6
2023-02-09T07:42:59.884Z,-0.5
2023-02-09T07:44:00.450Z,-0.5
2023-02-09T07:45:00.036Z,-0.5
2023-02-09T07:46:00.649Z,-0.5
2023-02-09T07:47:00.241Z,-0.4
2023-02-09T07:47:59.850Z,-0.4
2023-02-09T07:49:01.476Z,-0.4
2023-02-09T07:50:00.156Z,-0.4
2023-02-09T07:51:00.628Z,-0.3
2023-02-09T07:52:00.247Z,-0.4
2023-02-09T07:52:59.836Z,-0.4
2023-02-09T07:54:00.434Z,-0.2
2023-02-09T07:55:00.096Z,-0.2
2023-02-09T07:56:00.621Z,-0.1
2023-02-09T07:57:00.212Z,-0.2
2023-02-09T07:57:59.800Z,-0.2
2023-02-09T07:59:00.374Z,-0.1
2023-02-09T07:59:59.983Z,-0.1
2023-02-09T08:01:00.533Z,-0.1
2023-02-09T08:02:00.248Z,-0.1
2023-02-09T08:02:59.716Z,-0.1
2023-02-09T08:04:00.300Z,0
2023-02-09T08:04:59.970Z,0
2023-02-09T08:06:00.472Z,0
2023-02-09T08:07:00.120Z,0
2023-02-09T08:08:00.636Z,0
2023-02-09T08:09:00.224Z,0.1
2023-02-09T08:09:59.850Z,0.1
2023-02-09T08:11:00.395Z,0.1
2023-02-09T08:12:00.045Z,0.2
2023-02-09T08:13:00.599Z,0.2
2023-02-09T08:14:00.276Z,0.2
2023-02-09T08:14:59.828Z,0.3
2023-02-09T08:16:00.408Z,0.3
2023-02-09T08:17:00.025Z,0.3
2023-02-09T08:18:00.612Z,0.4
2023-02-09T08:19:00.203Z,0.5
2023-02-09T08:19:59.812Z,0.5
2023-02-09T08:21:00.369Z,0.4
2023-02-09T08:21:59.956Z,0.4
2023-02-09T08:23:00.545Z,0.4
2023-02-09T08:24:00.175Z,0.4
2023-02-09T08:24:59.749Z,0.5
2023-02-09T08:26:00.344Z,0.5
2023-02-09T08:26:59.943Z,0.5
2023-02-09T08:28:00.587Z,0.4
2023-02-09T08:29:00.221Z,0.4
2023-02-09T08:29:59.739Z,0.5
2023-02-09T08:31:00.436Z,0.5
2023-02-09T08:32:00.047Z,0.5
2023-02-09T08:33:00.559Z,0.5
2023-02-09T08:34:00.171Z,0.6
2023-02-09T08:34:59.733Z,0.6
2023-02-09T08:36:00.345Z,0.7
2023-02-09T08:36:59.934Z,0.7
2023-02-09T08:38:00.515Z,0.5
2023-02-09T08:39:00.111Z,0.7
2023-02-09T08:39:59.698Z,0.7
2023-02-09T08:41:00.285Z,0.7
2023-02-09T08:41:59.870Z,0.8
2023-02-09T08:43:00.456Z,0.8
2023-02-09T08:44:00.042Z,0.8
2023-02-09T08:45:00.632Z,0.8
2023-02-09T08:46:00.381Z,0.8
2023-02-09T08:46:59.999Z,1
2023-02-09T08:48:00.463Z,1
2023-02-09T08:49:00.060Z,1
2023-02-09T08:50:00.671Z,0.9
2023-02-09T08:51:00.279Z,1
2023-02-09T08:51:59.875Z,1
2023-02-09T08:53:00.480Z,1.1
2023-02-09T08:54:00.118Z,1.3
2023-02-09T08:55:00.678Z,1.4
2023-02-09T08:56:00.265Z,1.5
2023-02-09T08:56:59.874Z,1.5
2023-02-09T08:58:00.479Z,1.6
2023-02-09T08:59:00.084Z,1.6
2023-02-09T09:00:00.660Z,1.6
2023-02-09T09:01:00.338Z,1.7
2023-02-09T09:01:59.929Z,1.8
2023-02-09T09:03:00.511Z,1.7
2023-02-09T09:04:00.181Z,1.8
2023-02-09T09:04:59.693Z,1.7
2023-02-09T09:06:00.295Z,1.8
2023-02-09T09:06:59.884Z,1.8
2023-02-09T09:08:00.474Z,1.8
2023-02-09T09:09:00.100Z,1.9
2023-02-09T09:10:00.643Z,1.8
2023-02-09T09:11:00.316Z,1.8
2023-02-09T09:11:59.868Z,1.8
2023-02-09T09:13:00.452Z,1.9
2023-02-09T09:14:00.099Z,1.9
2023-02-09T09:15:00.627Z,2
2023-02-09T09:16:00.238Z,2.1
2023-02-09T09:16:59.923Z,2.1
2023-02-09T09:18:00.414Z,2.1
2023-02-09T09:19:00.003Z,2.1
2023-02-09T09:20:00.589Z,2.1
2023-02-09T09:21:00.190Z,2
2023-02-09T09:21:59.787Z,2
2023-02-09T09:23:00.343Z,2
2023-02-09T09:23:59.933Z,2.1
2023-02-09T09:25:00.524Z,2.2
2023-02-09T09:26:00.135Z,2.3
2023-02-09T09:26:59.700Z,2.3
2023-02-09T09:28:00.389Z,2.3
2023-02-09T09:28:59.943Z,2.3
2023-02-09T09:30:00.533Z,2.2
2023-02-09T09:31:00.220Z,2.3
2023-02-09T09:31:59.791Z,2.4
2023-02-09T09:33:00.494Z,2.5
2023-02-09T09:33:59.971Z,2.6
2023-02-09T09:35:00.551Z,2.7
2023-02-09T09:36:00.144Z,2.5
2023-02-09T09:36:59.751Z,2.3
2023-02-09T09:38:00.329Z,2.4
2023-02-09T09:38:59.913Z,2.6
2023-02-09T09:40:00.508Z,2.7
2023-02-09T09:41:00.121Z,2.8
2023-02-09T09:41:59.750Z,2.9
2023-02-09T09:43:00.286Z,2.9
2023-02-09T09:43:59.876Z,2.7
2023-02-09T09:45:00.460Z,2.5
2023-02-09T09:46:00.090Z,2.5
2023-02-09T09:47:00.655Z,2.6
2023-02-09T09:48:00.256Z,2.6
2023-02-09T09:48:59.874Z,2.7
2023-02-09T09:50:00.436Z,2.7
2023-02-09T09:51:00.027Z,2.8
2023-02-09T09:52:00.629Z,2.8
2023-02-09T09:53:00.219Z,2.7
2023-02-09T09:53:59.850Z,2.7
2023-02-09T09:55:00.393Z,2.8
2023-02-09T09:55:59.984Z,2.9
2023-02-09T09:57:00.590Z,3.1
2023-02-09T09:58:00.191Z,3.2
2023-02-09T09:58:59.813Z,3.3
2023-02-09T10:00:00.368Z,3.3
2023-02-09T10:00:59.989Z,3.3
2023-02-09T10:02:00.544Z,3.3
2023-02-09T10:03:00.131Z,3.1
2023-02-09T10:03:59.737Z,3
2023-02-09T10:05:00.327Z,3.1
2023-02-09T10:05:59.926Z,3.2
2023-02-09T10:07:00.544Z,3.3
2023-02-09T10:08:00.150Z,3.4
2023-02-09T10:08:59.713Z,3.4
2023-02-09T10:10:00.501Z,3.6
2023-02-09T10:10:59.959Z,3.4
2023-02-09T10:12:00.543Z,3.4
2023-02-09T10:13:00.137Z,3.4
2023-02-09T10:13:59.741Z,3.4
2023-02-09T10:15:00.354Z,3.4
2023-02-09T10:15:59.943Z,3.5
2023-02-09T10:17:00.565Z,3.4
2023-02-09T10:18:00.161Z,3.6
2023-02-09T10:18:59.770Z,3.5
2023-02-09T10:20:00.358Z,3.5
2023-02-09T10:20:59.948Z,3.6
2023-02-09T10:22:00.534Z,3.5
2023-02-09T10:23:00.132Z,3.5
2023-02-09T10:23:59.713Z,3.6
2023-02-09T10:25:00.301Z,3.6
2023-02-09T10:25:59.932Z,3.6
2023-02-09T10:27:00.475Z,3.8
2023-02-09T10:28:00.099Z,3.8
2023-02-09T10:29:00.647Z,3.8
2023-02-09T10:30:00.233Z,3.8
2023-02-09T10:30:59.942Z,3.8
2023-02-09T10:32:00.445Z,3.8
2023-02-09T10:33:00.065Z,3.7
2023-02-09T10:34:00.645Z,3.7
2023-02-09T10:35:00.278Z,3.9
2023-02-09T10:35:59.886Z,3.9
2023-02-09T10:37:00.456Z,4
2023-02-09T10:38:00.044Z,3.9
2023-02-09T10:39:00.624Z,3.9
2023-02-09T10:40:00.237Z,4.1
2023-02-09T10:40:59.852Z,4.1
2023-02-09T10:42:00.471Z,4.2
2023-02-09T10:43:00.093Z,4.2
2023-02-09T10:44:00.678Z,4.1
2023-02-09T10:45:00.265Z,4.1
2023-02-09T10:45:59.890Z,4.2
2023-02-09T10:47:00.434Z,4.3
2023-02-09T10:48:00.060Z,4.4
2023-02-09T10:49:00.636Z,4.3
2023-02-09T10:50:00.221Z,4.4
2023-02-09T10:50:59.817Z,4.3
2023-02-09T10:52:00.387Z,4.3
2023-02-09T10:52:59.978Z,4.3
2023-02-09T10:54:00.611Z,4.4
2023-02-09T10:55:00.237Z,4.3
2023-02-09T10:55:59.814Z,4.3
2023-02-09T10:57:02.073Z,4.3
2023-02-09T10:57:59.737Z,4.3
2023-02-09T10:59:00.332Z,4.3
2023-02-09T10:59:59.980Z,4.3
2023-02-09T11:01:00.513Z,4.4
2023-02-09T11:02:00.141Z,4.4
2023-02-09T11:02:59.710Z,4.4
2023-02-09T11:04:00.393Z,4.4
2023-02-09T11:04:59.955Z,4.4
2023-02-09T11:06:00.543Z,4.4
2023-02-09T11:07:00.154Z,4.4
2023-02-09T11:07:59.721Z,4.3
2023-02-09T11:09:00.299Z,4.4
2023-02-09T11:09:59.891Z,4.3
2023-02-09T11:11:00.475Z,4.4
2023-02-09T11:12:00.117Z,4.4
2023-02-09T11:13:00.641Z,4.6
2023-02-09T11:14:00.260Z,4.6
2023-02-09T11:14:59.901Z,4.6
2023-02-09T11:16:00.532Z,4.7
2023-02-09T11:17:00.131Z,4.5
2023-02-09T11:18:00.684Z,4.7
2023-02-09T11:19:00.270Z,4.7
2023-02-09T11:19:59.860Z,4.7
2023-02-09T11:21:00.446Z,4.6
2023-02-09T11:22:00.062Z,4.7
2023-02-09T11:23:00.651Z,4.7
2023-02-09T11:24:00.245Z,4.8
2023-02-09T11:24:59.845Z,4.7
2023-02-09T11:26:00.431Z,4.8
2023-02-09T11:27:00.030Z,4.9
2023-02-09T11:28:00.653Z,4.8
2023-02-09T11:29:00.255Z,4.7
2023-02-09T11:29:59.860Z,4.8
2023-02-09T11:31:00.493Z,4.9
2023-02-09T11:32:00.199Z,4.9
2023-02-09T11:33:00.714Z,5
2023-02-09T11:34:00.303Z,4.9
2023-02-09T11:34:59.900Z,5
2023-02-09T11:36:00.476Z,5
2023-02-09T11:37:00.105Z,5.1
2023-02-09T11:37:59.705Z,5
2023-02-09T11:39:00.301Z,4.8
2023-02-09T11:39:59.893Z,4.9
2023-02-09T11:41:00.493Z,5
2023-02-09T11:42:00.098Z,5.1
2023-02-09T11:43:00.667Z,5.3
2023-02-09T11:44:00.277Z,5.4
2023-02-09T11:44:59.863Z,5.5
2023-02-09T11:46:00.544Z,5.2
2023-02-09T11:47:00.114Z,5.2
2023-02-09T11:47:59.702Z,5
2023-02-09T11:49:00.298Z,5
2023-02-09T11:49:59.898Z,5.2
2023-02-09T11:51:00.471Z,5.3
2023-02-09T11:52:00.100Z,5.5
2023-02-09T11:53:00.647Z,5.5
2023-02-09T11:54:00.268Z,5.5
2023-02-09T11:54:59.872Z,5.5
2023-02-09T11:56:00.531Z,5.4
2023-02-09T11:57:00.126Z,5.5
2023-02-09T11:58:00.683Z,5.5
2023-02-09T11:59:00.296Z,5.6
2023-02-09T12:00:00.190Z,5.6
2023-02-09T12:01:13.510Z,5.6
2023-02-09T12:02:00.044Z,5.7
2023-02-09T12:03:00.751Z,5.6
2023-02-09T12:04:00.428Z,5.5
2023-02-09T12:04:59.892Z,5.6
2023-02-09T12:06:00.474Z,5.7
2023-02-09T12:07:00.082Z,5.8
2023-02-09T12:08:00.650Z,5.7
2023-02-09T12:09:00.261Z,5.8
2023-02-09T12:09:59.851Z,5.7
2023-02-09T12:11:00.472Z,5.7
2023-02-09T12:12:00.076Z,5.7
2023-02-09T12:13:00.639Z,5.7
2023-02-09T12:14:00.250Z,5.8
2023-02-09T12:14:59.838Z,5.8
2023-02-09T12:16:00.500Z,6
2023-02-09T12:17:00.089Z,5.9
2023-02-09T12:18:00.678Z,5.8
2023-02-09T12:19:00.282Z,5.6
2023-02-09T12:19:59.881Z,5.6
2023-02-09T12:21:00.486Z,5.8
2023-02-09T12:22:00.096Z,5.9
2023-02-09T12:23:00.669Z,6
2023-02-09T12:24:00.262Z,6
2023-02-09T12:24:59.856Z,5.9
2023-02-09T12:26:00.502Z,5.8
2023-02-09T12:27:00.095Z,5.9
2023-02-09T12:28:00.703Z,5.8
2023-02-09T12:29:00.302Z,5.8
2023-02-09T12:29:59.895Z,5.7
2023-02-09T12:31:00.541Z,5.7
2023-02-09T12:32:00.289Z,5.7
2023-02-09T12:32:59.726Z,5.8
2023-02-09T12:34:00.326Z,5.9
2023-02-09T12:34:59.920Z,5.8
2023-02-09T12:36:00.526Z,5.8
2023-02-09T12:37:00.122Z,5.8
2023-02-09T12:37:59.699Z,5.8
2023-02-09T12:39:07.363Z,5.8
2023-02-09T12:40:00.152Z,5.9
2023-02-09T12:41:00.523Z,5.9
2023-02-09T12:42:00.122Z,6
2023-02-09T12:42:59.715Z,6.1
2023-02-09T12:44:00.285Z,6.1
2023-02-09T12:44:59.874Z,6.1
2023-02-09T12:46:00.504Z,6
2023-02-09T12:47:00.124Z,5.9
2023-02-09T12:47:59.715Z,5.8
2023-02-09T12:49:00.284Z,5.7
2023-02-09T12:49:59.893Z,5.8
2023-02-09T12:51:00.456Z,5.8
2023-02-09T12:52:00.074Z,5.9
2023-02-09T12:53:00.651Z,5.9
2023-02-09T12:54:00.237Z,5.9
2023-02-09T12:54:59.824Z,5.9
2023-02-09T12:56:00.406Z,5.8
2023-02-09T12:57:00.008Z,5.8
2023-02-09T12:58:00.613Z,5.8
2023-02-09T12:59:00.204Z,5.7
2023-02-09T12:59:59.821Z,5.8
2023-02-09T13:01:00.425Z,5.8
2023-02-09T13:02:00.042Z,5.7
2023-02-09T13:03:00.657Z,5.8
2023-02-09T13:04:00.342Z,5.9
2023-02-09T13:04:59.868Z,5.8
2023-02-09T13:06:00.500Z,5.7
2023-02-09T13:07:00.104Z,5.8
2023-02-09T13:08:00.671Z,5.8
2023-02-09T13:09:00.279Z,6
2023-02-09T13:09:59.870Z,6.1
2023-02-09T13:11:00.457Z,6.2
2023-02-09T13:12:00.044Z,6.3
2023-02-09T13:13:00.656Z,6.2
2023-02-09T13:14:00.243Z,6.1
2023-02-09T13:14:59.832Z,5.9
2023-02-09T13:16:00.418Z,5.8
2023-02-09T13:17:00.071Z,5.8
2023-02-09T13:18:00.618Z,5.8
2023-02-09T13:19:00.205Z,5.6
2023-02-09T13:19:59.779Z,5.6
2023-02-09T13:21:00.362Z,5.7
2023-02-09T13:21:59.976Z,5.7
2023-02-09T13:23:00.567Z,5.7
2023-02-09T13:24:00.186Z,5.8
2023-02-09T13:24:59.739Z,5.5
2023-02-09T13:26:00.324Z,5.4
2023-02-09T13:26:59.966Z,5.5
2023-02-09T13:28:00.619Z,5.5
2023-02-09T13:29:06.051Z,5.5
2023-02-09T13:29:59.784Z,5.6
2023-02-09T13:31:00.358Z,5.7
2023-02-09T13:31:59.990Z,5.9
2023-02-09T13:33:02.724Z,6